createdAt,value
2022-11-20T00:02:22.892Z,3.65
2022-11-20T00:04:49.250Z,3.62
2022-11-20T00:07:15.599Z,3.70
2022-11-20T00:09:41.925Z,3.40
2022-11-20T00:12:08.438Z,3.12
2022-11-20T00:14:34.879Z,3.65
2022-11-20T00:17:01.208Z,3.65
2022-11-20T00:19:27.520Z,3.67
2022-11-20T00:21:54.886Z,3.10
2022-11-20T00:24:21.202Z,3.60
2022-11-20T00:26:47.538Z,3.30
2022-11-20T00:29:13.859Z,3.95
2022-11-20T00:31:40.158Z,3.50
2022-11-20T00:34:06.481Z,3.53
2022-11-20T00:36:32.927Z,3.40
2022-11-20T00:38:59.336Z,3.67
2022-11-20T00:41:25.668Z,3.70
2022-11-20T00:43:51.999Z,3.55
2022-11-20T00:46:18.359Z,3.15
2022-11-20T00:48:44.678Z,3.08
2022-11-20T00:51:11.014Z,3.40
2022-11-20T00:53:37.325Z,3.70
2022-11-20T00:56:03.653Z,3.50
2022-11-20T00:58:29.983Z,3.53
2022-11-20T01:00:56.338Z,3.33
2022-11-20T01:03:26.792Z,2.97
2022-11-20T01:05:53.484Z,3.05
2022-11-20T01:08:19.780Z,2.92
2022-11-20T01:10:46.101Z,3.15
2022-11-20T01:13:31.186Z,3.03
2022-11-20T01:15:57.514Z,3.20
2022-11-20T01:18:23.839Z,3.10
2022-11-20T01:20:50.168Z,3.30
2022-11-20T01:23:16.469Z,3.20
2022-11-20T01:25:42.831Z,3.00
2022-11-20T01:28:09.154Z,3.33
2022-11-20T01:30:35.515Z,3.20
2022-11-20T01:33:01.836Z,3.05
2022-11-20T01:35:28.186Z,3.10
2022-11-20T01:37:54.496Z,3.33
2022-11-20T01:40:20.815Z,3.22
2022-11-20T01:43:06.139Z,3.67
2022-11-20T01:45:32.438Z,2.90
2022-11-20T01:47:58.804Z,3.00
2022-11-20T01:50:25.131Z,2.90
2022-11-20T01:52:51.442Z,3.22
2022-11-20T01:55:17.792Z,3.10
2022-11-20T01:57:44.150Z,3.55
2022-11-20T02:00:10.699Z,2.72
2022-11-20T02:02:37.020Z,3.05
2022-11-20T02:05:03.347Z,3.58
2022-11-20T02:07:29.676Z,3.00
2022-11-20T02:09:58.768Z,3.22
2022-11-20T02:12:44.227Z,2.92
2022-11-20T02:15:10.612Z,2.92
2022-11-20T02:17:36.933Z,2.92
2022-11-20T02:20:03.256Z,3.10
2022-11-20T02:22:29.588Z,3.20
2022-11-20T02:24:55.915Z,2.95
2022-11-20T02:27:23.372Z,2.85
2022-11-20T02:29:49.733Z,3.40
2022-11-20T02:32:16.048Z,3.00
2022-11-20T02:34:42.391Z,3.08
2022-11-20T02:37:08.708Z,2.60
2022-11-20T02:39:35.056Z,2.95
2022-11-20T02:42:01.372Z,2.67
2022-11-20T02:44:27.696Z,2.70
2022-11-20T02:46:54.005Z,2.90
2022-11-20T02:49:20.626Z,3.10
2022-11-20T02:51:47.091Z,2.85
2022-11-20T02:54:13.386Z,2.62
2022-11-20T02:56:39.689Z,2.65
2022-11-20T02:59:06.022Z,2.80
2022-11-20T03:01:32.401Z,2.90
2022-11-20T03:03:58.791Z,2.58
2022-11-20T03:06:25.102Z,2.70
2022-11-20T03:08:51.463Z,2.35
2022-11-20T03:11:18.152Z,3.00
2022-11-20T03:13:44.461Z,2.90
2022-11-20T03:16:10.795Z,3.08
2022-11-20T03:18:37.105Z,2.80
2022-11-20T03:21:03.486Z,3.00
2022-11-20T03:23:29.809Z,2.83
2022-11-20T03:25:56.126Z,2.60
2022-11-20T03:28:22.479Z,2.90
2022-11-20T03:30:48.834Z,2.72
2022-11-20T03:33:15.146Z,2.60
2022-11-20T03:35:41.482Z,2.60
2022-11-20T03:38:07.796Z,2.60
2022-11-20T03:40:34.111Z,2.60
2022-11-20T03:43:00.427Z,2.90
2022-11-20T03:45:26.781Z,2.92
2022-11-20T03:47:53.081Z,2.50
2022-11-20T03:50:19.461Z,2.30
2022-11-20T03:52:45.823Z,2.47
2022-11-20T03:55:12.200Z,2.55
2022-11-20T03:57:38.545Z,2.78
2022-11-20T04:00:04.842Z,2.70
2022-11-20T04:02:31.152Z,2.75
2022-11-20T04:04:57.487Z,2.45
2022-11-20T04:07:23.888Z,2.70
2022-11-20T04:09:50.262Z,2.70
2022-11-20T04:12:16.600Z,2.40
2022-11-20T04:14:42.935Z,2.80
2022-11-20T04:17:09.293Z,2.55
2022-11-20T04:19:35.644Z,2.67
2022-11-20T04:22:01.998Z,2.65
2022-11-20T04:24:28.328Z,2.75
2022-11-20T04:26:54.679Z,2.53
2022-11-20T04:29:21.413Z,2.37
2022-11-20T04:31:47.907Z,2.15
2022-11-20T04:34:14.340Z,2.37
2022-11-20T04:36:40.734Z,2.78
2022-11-20T04:39:07.049Z,2.53
2022-11-20T04:41:33.379Z,2.25
2022-11-20T04:44:05.976Z,2.67
2022-11-20T04:46:32.626Z,2.78
2022-11-20T04:48:58.976Z,2.50
2022-11-20T04:51:25.300Z,2.60
2022-11-20T04:53:51.623Z,2.50
2022-11-20T04:56:17.961Z,2.50
2022-11-20T04:58:44.262Z,2.70
2022-11-20T05:01:10.627Z,2.83
2022-11-20T05:03:41.964Z,2.80
2022-11-20T05:06:08.735Z,2.67
2022-11-20T05:08:35.063Z,2.60
2022-11-20T05:11:01.602Z,2.45
2022-11-20T05:13:27.918Z,2.47
2022-11-20T05:15:54.275Z,2.40
2022-11-20T05:18:20.780Z,2.75
2022-11-20T05:20:47.094Z,2.75
2022-11-20T05:23:13.410Z,2.50
2022-11-20T05:25:39.741Z,2.47
2022-11-20T05:28:06.090Z,2.20
2022-11-20T05:30:32.406Z,2.58
2022-11-20T05:32:58.722Z,2.45
2022-11-20T05:35:25.057Z,2.70
2022-11-20T05:37:51.409Z,1.98
2022-11-20T05:40:17.738Z,2.45
2022-11-20T05:42:44.784Z,2.45
2022-11-20T05:45:11.127Z,2.50
2022-11-20T05:47:37.444Z,2.37
2022-11-20T05:50:03.754Z,2.22
2022-11-20T05:52:30.383Z,2.40
2022-11-20T05:54:56.694Z,2.65
2022-11-20T05:57:22.998Z,2.35
2022-11-20T05:59:49.325Z,2.62
2022-11-20T06:02:15.689Z,2.62
2022-11-20T06:04:42.049Z,2.22
2022-11-20T06:07:08.466Z,2.35
2022-11-20T06:09:34.837Z,2.28
2022-11-20T06:12:01.165Z,2.00
2022-11-20T06:14:27.493Z,2.40
2022-11-20T06:16:53.807Z,2.22
2022-11-20T06:19:20.443Z,2.30
2022-11-20T06:21:46.905Z,2.28
2022-11-20T06:24:13.279Z,2.20
2022-11-20T06:26:39.624Z,2.42
2022-11-20T06:29:05.945Z,2.25
2022-11-20T06:31:35.928Z,2.28
2022-11-20T06:34:05.782Z,2.42
2022-11-20T06:36:32.194Z,2.10
2022-11-20T06:38:58.523Z,2.40
2022-11-20T06:41:24.873Z,2.10
2022-11-20T06:43:51.291Z,2.15
2022-11-20T06:46:20.820Z,2.17
2022-11-20T06:48:47.173Z,2.12
2022-11-20T06:51:13.544Z,2.35
2022-11-20T06:53:39.877Z,2.40
2022-11-20T06:56:06.201Z,2.17
2022-11-20T06:58:32.556Z,2.37
2022-11-20T07:00:58.890Z,2.30
2022-11-20T07:03:25.281Z,2.42
2022-11-20T07:05:51.595Z,2.22
2022-11-20T07:08:17.907Z,2.30
2022-11-20T07:10:44.233Z,2.20
2022-11-20T07:13:10.697Z,2.00
2022-11-20T07:15:37.063Z,2.30
2022-11-20T07:18:03.386Z,2.50
2022-11-20T07:20:29.707Z,1.87
2022-11-20T07:22:56.575Z,2.53
2022-11-20T07:25:22.945Z,2.12
2022-11-20T07:27:49.263Z,2.17
2022-11-20T07:30:15.568Z,2.40
2022-11-20T07:32:41.879Z,2.37
2022-11-20T07:35:08.197Z,2.53
2022-11-20T07:37:34.543Z,2.50
2022-11-20T07:40:00.880Z,2.70
2022-11-20T07:42:27.189Z,3.00
2022-11-20T07:44:53.510Z,2.70
2022-11-20T07:47:19.834Z,2.47
2022-11-20T07:49:46.177Z,2.58
2022-11-20T07:52:12.477Z,2.83
2022-11-20T07:54:38.842Z,2.42
2022-11-20T07:57:05.153Z,2.95
2022-11-20T07:59:31.600Z,2.45
2022-11-20T08:01:57.916Z,2.70
2022-11-20T08:04:24.514Z,2.60
2022-11-20T08:06:50.847Z,2.83
2022-11-20T08:09:17.162Z,3.00
2022-11-20T08:12:02.522Z,2.85
2022-11-20T08:14:28.922Z,3.05
2022-11-20T08:16:55.299Z,3.70
2022-11-20T08:19:21.964Z,5.30
2022-11-20T08:21:48.610Z,5.03
2022-11-20T08:24:15.031Z,4.43
2022-11-20T08:26:41.739Z,4.60
2022-11-20T08:29:08.414Z,4.37
2022-11-20T08:31:34.806Z,4.30
2022-11-20T08:34:03.001Z,3.85
2022-11-20T08:36:32.713Z,4.12
2022-11-20T08:38:59.051Z,4.12
2022-11-20T08:41:25.425Z,4.60
2022-11-20T08:43:51.721Z,4.65
2022-11-20T08:46:18.021Z,4.68
2022-11-20T08:48:44.365Z,5.10
2022-11-20T08:51:10.679Z,5.20
2022-11-20T08:53:37.062Z,4.40
2022-11-20T08:56:03.365Z,5.15
2022-11-20T08:58:31.009Z,5.25
2022-11-20T09:00:57.580Z,5.12
2022-11-20T09:03:27.403Z,5.45
2022-11-20T09:05:57.850Z,5.32
2022-11-20T09:08:24.201Z,4.87
2022-11-20T09:10:50.535Z,5.25
2022-11-20T09:13:16.849Z,5.80
2022-11-20T09:15:43.162Z,6.20
2022-11-20T09:18:09.486Z,5.50
2022-11-20T09:20:36.697Z,5.62
2022-11-20T09:23:03.119Z,5.55
2022-11-20T09:25:29.514Z,5.05
2022-11-20T09:27:55.821Z,5.78
2022-11-20T09:30:22.138Z,10.63
2022-11-20T09:32:48.444Z,9.52
2022-11-20T09:35:15.613Z,8.73
2022-11-20T09:37:41.950Z,7.93
2022-11-20T09:40:08.380Z,7.68
2022-11-20T09:42:34.734Z,7.35
2022-11-20T09:45:01.030Z,7.70
2022-11-20T09:47:27.360Z,7.65
2022-11-20T09:49:53.714Z,6.55
2022-11-20T09:52:20.219Z,6.78
2022-11-20T09:54:46.637Z,6.62
2022-11-20T09:57:12.949Z,6.20
2022-11-20T09:59:39.289Z,6.62
2022-11-20T10:02:05.606Z,6.53
2022-11-20T10:04:34.596Z,6.40
2022-11-20T10:07:33.473Z,6.93
2022-11-20T10:09:49.433Z,6.28
2022-11-20T10:12:15.750Z,12.18
2022-11-20T10:16:14.054Z,17.35
2022-11-20T10:18:40.608Z,16.70
2022-11-20T10:21:06.949Z,14.48
2022-11-20T10:23:33.257Z,14.45
2022-11-20T10:26:02.650Z,14.38
2022-11-20T10:28:28.976Z,13.27
2022-11-20T10:30:55.306Z,14.52
2022-11-20T10:33:21.677Z,15.93
2022-11-20T10:35:48.060Z,14.55
2022-11-20T10:38:14.376Z,15.20
2022-11-20T10:40:40.737Z,15.02
2022-11-20T10:43:07.090Z,14.50
2022-11-20T10:45:35.618Z,15.75
2022-11-20T10:48:01.919Z,15.93
2022-11-20T10:50:28.250Z,15.60
2022-11-20T10:52:54.556Z,19.62
2022-11-20T10:55:20.897Z,21.58
2022-11-20T10:57:47.231Z,15.77
2022-11-20T11:00:14.551Z,15.75
2022-11-20T11:02:41.357Z,13.77
2022-11-20T11:05:13.078Z,12.75
2022-11-20T11:07:40.776Z,12.05
2022-11-20T11:10:07.170Z,11.95
2022-11-20T11:12:33.478Z,11.15
2022-11-20T11:14:59.797Z,12.52
2022-11-20T11:17:28.239Z,10.90
2022-11-20T11:19:54.696Z,17.17
2022-11-20T11:22:21.010Z,13.93
2022-11-20T11:24:47.589Z,12.48
2022-11-20T11:27:17.132Z,11.77
2022-11-20T11:29:44.259Z,10.65
2022-11-20T11:32:10.567Z,11.57
2022-11-20T11:34:36.943Z,9.20
2022-11-20T11:37:04.484Z,9.80
2022-11-20T11:39:30.821Z,9.88
2022-11-20T11:41:57.131Z,10.18
2022-11-20T11:44:42.195Z,9.10
2022-11-20T11:47:08.505Z,8.48
2022-11-20T11:49:34.828Z,9.52
2022-11-20T11:52:01.147Z,7.20
2022-11-20T11:54:27.461Z,7.85
2022-11-20T11:56:53.788Z,8.35
2022-11-20T11:59:20.362Z,7.85
2022-11-20T12:01:48.936Z,7.53
2022-11-20T12:04:16.226Z,7.22
2022-11-20T12:06:42.578Z,7.35
2022-11-20T12:09:08.895Z,7.05
2022-11-20T12:11:35.250Z,6.28
2022-11-20T12:14:03.137Z,7.60
2022-11-20T12:16:29.497Z,6.87
2022-11-20T12:18:55.925Z,7.60
2022-11-20T12:21:22.314Z,7.60
2022-11-20T12:23:48.628Z,7.62
2022-11-20T12:26:15.129Z,7.15
2022-11-20T12:28:41.447Z,8.02
2022-11-20T12:31:07.779Z,7.30
2022-11-20T12:33:34.104Z,7.95
2022-11-20T12:36:00.470Z,7.40
2022-11-20T12:38:26.788Z,7.40
2022-11-20T12:40:53.131Z,8.88
2022-11-20T12:43:38.300Z,8.73
2022-11-20T12:46:04.665Z,7.77
2022-11-20T12:48:31.031Z,7.72
2022-11-20T12:53:43.714Z,8.93
2022-11-20T12:56:10.030Z,8.63
2022-11-20T12:58:36.380Z,7.80
2022-11-20T13:01:02.806Z,8.27
2022-11-20T13:03:29.179Z,7.72
2022-11-20T13:05:55.714Z,8.35
2022-11-20T13:08:22.095Z,8.18
2022-11-20T13:10:48.427Z,7.85
2022-11-20T13:13:15.745Z,7.85
2022-11-20T13:15:42.121Z,8.00
2022-11-20T13:18:08.447Z,8.07
2022-11-20T13:20:34.753Z,8.20
2022-11-20T13:23:01.083Z,8.07
2022-11-20T13:25:27.409Z,8.15
2022-11-20T13:27:53.742Z,8.27
2022-11-20T13:30:20.174Z,9.18
2022-11-20T13:32:46.612Z,9.27
2022-11-20T13:35:12.961Z,8.38
2022-11-20T13:37:39.256Z,8.95
2022-11-20T13:42:37.635Z,8.25
2022-11-20T13:45:04.035Z,7.72
2022-11-20T13:47:30.453Z,7.25
2022-11-20T13:49:56.792Z,8.57
2022-11-20T13:52:23.130Z,7.35
2022-11-20T13:54:52.890Z,8.25
2022-11-20T13:57:19.218Z,7.70
2022-11-20T13:59:45.533Z,7.55
2022-11-20T14:02:11.846Z,8.25
2022-11-20T14:04:38.777Z,7.82
2022-11-20T14:07:05.121Z,7.62
2022-11-20T14:09:31.507Z,7.12
2022-11-20T14:11:58.260Z,6.93
2022-11-20T14:14:25.082Z,8.32
2022-11-20T14:16:51.578Z,6.75
2022-11-20T14:19:17.912Z,7.72
2022-11-20T14:21:44.230Z,8.70
2022-11-20T14:24:10.576Z,8.10
2022-11-20T14:26:37.410Z,7.18
2022-11-20T14:29:04.090Z,7.22
2022-11-20T14:31:30.782Z,7.75
2022-11-20T14:33:57.246Z,7.55
2022-11-20T14:36:24.261Z,7.40
2022-11-20T14:38:50.597Z,7.97
2022-11-20T14:41:16.930Z,7.80
2022-11-20T14:43:43.837Z,7.45
2022-11-20T14:46:11.497Z,8.00
2022-11-20T14:48:37.817Z,8.32
2022-11-20T14:51:04.296Z,8.40
2022-11-20T14:53:30.635Z,8.75
2022-11-20T14:55:59.020Z,8.80
2022-11-20T14:58:25.550Z,8.85
2022-11-20T15:00:51.859Z,8.05
2022-11-20T15:03:18.231Z,7.97
2022-11-20T15:05:44.679Z,8.23
2022-11-20T15:08:11.809Z,8.75
2022-11-20T15:10:39.255Z,9.80
2022-11-20T15:13:11.265Z,9.07
2022-11-20T15:15:39.007Z,9.77
2022-11-20T15:18:05.371Z,9.25
2022-11-20T15:20:31.964Z,9.18
2022-11-20T15:22:58.269Z,8.55
2022-11-20T15:25:25.652Z,9.03
2022-11-20T15:27:52.090Z,9.27
2022-11-20T15:30:18.467Z,8.65
2022-11-20T15:32:44.838Z,8.77
2022-11-20T15:35:11.151Z,9.98
2022-11-20T15:37:37.516Z,10.02
2022-11-20T15:40:03.865Z,10.48
2022-11-20T15:42:30.186Z,9.70
2022-11-20T15:44:56.507Z,9.50
2022-11-20T15:47:22.814Z,10.45
2022-11-20T15:49:49.125Z,11.00
2022-11-20T15:52:15.495Z,10.18
2022-11-20T15:54:43.475Z,9.98
2022-11-20T15:57:10.155Z,11.23
2022-11-20T15:59:40.746Z,12.07
2022-11-20T16:02:07.051Z,13.13
2022-11-20T16:04:33.366Z,12.10
2022-11-20T16:06:59.697Z,12.33
2022-11-20T16:09:26.087Z,12.07
2022-11-20T16:11:52.459Z,11.73
2022-11-20T16:14:37.791Z,12.00
2022-11-20T16:17:04.113Z,11.97
2022-11-20T16:19:30.440Z,10.77
2022-11-20T16:22:02.258Z,10.93
2022-11-20T16:24:29.141Z,11.18
2022-11-20T16:26:55.502Z,11.68
2022-11-20T16:29:21.861Z,12.40
2022-11-20T16:31:48.192Z,12.45
2022-11-20T16:34:14.512Z,11.95
2022-11-20T16:36:40.869Z,12.73
2022-11-20T16:39:07.198Z,12.90
2022-11-20T16:41:33.565Z,12.30
2022-11-20T16:43:59.959Z,12.45
2022-11-20T16:46:26.283Z,12.77
2022-11-20T16:48:52.605Z,12.13
2022-11-20T16:51:18.926Z,11.80
2022-11-20T16:53:45.270Z,12.77
2022-11-20T16:56:11.592Z,12.32
2022-11-20T16:58:38.091Z,12.23
2022-11-20T17:01:04.466Z,13.67
2022-11-20T17:03:32.472Z,14.05
2022-11-20T17:05:58.785Z,12.60
2022-11-20T17:08:25.135Z,14.30
2022-11-20T17:10:51.482Z,14.37
2022-11-20T17:13:17.783Z,14.23
2022-11-20T17:15:44.102Z,14.07
2022-11-20T17:18:10.410Z,14.07
2022-11-20T17:20:36.731Z,14.43
2022-11-20T17:23:03.025Z,13.30
2022-11-20T17:25:29.340Z,13.77
2022-11-20T17:27:55.683Z,13.73
2022-11-20T17:30:21.998Z,13.83
2022-11-20T17:32:48.461Z,14.80
2022-11-20T17:35:14.835Z,14.60
2022-11-20T17:37:41.147Z,15.07
2022-11-20T17:40:07.465Z,15.40
2022-11-20T18:56:58.600Z,25.05
2022-11-20T18:59:24.918Z,27.08
2022-11-20T19:01:51.356Z,25.17
2022-11-20T19:04:21.311Z,21.45
2022-11-20T19:06:52.968Z,22.13
2022-11-20T19:09:19.392Z,25.80
2022-11-20T19:11:45.729Z,22.62
2022-11-20T19:14:12.079Z,24.08
2022-11-20T19:16:38.406Z,23.67
2022-11-20T19:19:04.876Z,28.62
2022-11-20T19:21:31.184Z,24.77
2022-11-20T19:23:58.434Z,23.85
2022-11-20T19:26:24.916Z,22.98
2022-11-20T19:28:51.356Z,24.48
2022-11-20T19:31:23.069Z,24.10
2022-11-20T19:33:50.698Z,24.45
2022-11-20T19:36:17.066Z,22.83
2022-11-20T19:38:47.679Z,23.13
2022-11-20T19:41:14.328Z,20.73
2022-11-20T19:43:40.638Z,18.80
2022-11-20T19:46:07.009Z,18.27
2022-11-20T19:48:33.986Z,20.20
2022-11-20T19:51:00.329Z,19.73
2022-11-20T19:53:26.672Z,19.23
2022-11-20T19:55:52.978Z,17.97
2022-11-20T19:58:19.342Z,19.13
2022-11-20T20:00:45.786Z,22.63
2022-11-20T20:03:12.208Z,21.97
2022-11-20T20:05:38.664Z,19.37
2022-11-20T20:08:04.974Z,21.20
2022-11-20T20:10:34.358Z,20.60
2022-11-20T20:13:00.675Z,20.53
2022-11-20T20:15:27.130Z,19.67
2022-11-20T20:17:53.452Z,21.30
2022-11-20T20:20:19.766Z,21.60
2022-11-20T20:22:46.068Z,21.60
2022-11-20T20:25:12.378Z,24.90
2022-11-20T20:27:38.691Z,22.20
2022-11-20T20:30:05.019Z,20.43
2022-11-20T20:32:31.367Z,21.37
2022-11-20T20:34:57.674Z,22.23
2022-11-20T20:37:23.983Z,19.80
2022-11-20T20:39:50.310Z,19.93
2022-11-20T20:42:16.624Z,18.43
2022-11-20T20:45:01.897Z,20.03
2022-11-20T20:47:28.199Z,18.10
2022-11-20T20:49:54.527Z,18.53
2022-11-20T20:52:20.850Z,18.80
2022-11-20T20:54:47.179Z,18.97
2022-11-20T20:57:13.493Z,17.80
2022-11-20T20:59:39.820Z,17.60
2022-11-20T21:02:06.406Z,17.23
2022-11-20T21:04:33.914Z,18.03
2022-11-20T21:07:00.294Z,19.63
2022-11-20T21:09:26.657Z,18.20
2022-11-20T21:11:52.964Z,19.33
2022-11-20T21:14:19.289Z,19.13
2022-11-20T21:16:45.598Z,18.73
2022-11-20T21:19:11.971Z,19.43
2022-11-20T21:21:57.177Z,18.70
2022-11-20T21:24:23.891Z,18.63
2022-11-20T21:26:52.246Z,18.47
2022-11-20T21:29:18.606Z,18.57
2022-11-20T21:31:44.906Z,19.17
2022-11-20T21:34:11.228Z,18.27
2022-11-20T21:36:37.542Z,19.37
2022-11-20T21:39:03.903Z,18.03
2022-11-20T21:41:33.254Z,19.43
2022-11-20T21:44:29.574Z,18.07
2022-11-20T22:01:16.229Z,17.97
2022-11-20T22:03:42.585Z,18.83
2022-11-20T22:06:08.901Z,18.73
2022-11-20T22:08:36.125Z,18.33
2022-11-20T22:11:02.477Z,17.63
2022-11-20T22:13:47.730Z,19.70
2022-11-20T22:16:14.115Z,19.63
2022-11-20T22:18:40.419Z,18.93
2022-11-20T22:21:09.806Z,19.43
2022-11-20T22:23:36.237Z,19.00
2022-11-20T22:26:02.533Z,20.27
2022-11-20T22:28:28.854Z,18.73
2022-11-20T22:30:55.189Z,19.67
2022-11-20T22:33:21.599Z,20.53
2022-11-20T22:35:47.915Z,18.20
2022-11-20T22:38:14.272Z,20.67
2022-11-20T22:40:40.682Z,21.07
2022-11-20T22:43:07.038Z,20.27
2022-11-20T22:45:33.551Z,19.23
2022-11-20T22:47:59.868Z,19.83
2022-11-20T22:50:26.258Z,20.00
2022-11-20T22:52:52.561Z,19.60
2022-11-20T22:55:18.880Z,19.43
2022-11-20T22:57:45.191Z,22.37
2022-11-20T23:00:11.507Z,21.80
2022-11-20T23:02:37.835Z,22.63
2022-11-20T23:05:04.254Z,22.40
2022-11-20T23:07:34.929Z,22.83
2022-11-20T23:10:04.678Z,23.48
2022-11-20T23:12:30.991Z,25.15
2022-11-20T23:14:57.355Z,24.30
2022-11-20T23:17:23.652Z,24.33
2022-11-20T23:19:49.969Z,24.10
2022-11-20T23:22:16.295Z,25.93
2022-11-20T23:24:42.598Z,24.13
2022-11-20T23:27:08.922Z,26.13
2022-11-20T23:29:35.292Z,24.60
2022-11-20T23:32:01.685Z,24.57
2022-11-20T23:34:28.189Z,25.63
2022-11-20T23:36:54.731Z,26.03
2022-11-20T23:39:21.048Z,25.53
2022-11-20T23:41:47.373Z,26.60
2022-11-20T23:44:13.678Z,27.63
2022-11-20T23:46:40.005Z,26.13
2022-11-20T23:49:06.325Z,27.30
2022-11-20T23:51:32.673Z,27.43
2022-11-20T23:54:03.394Z,27.53
2022-11-20T23:56:31.190Z,27.03
2022-11-20T23:58:57.539Z,25.70
